Hunt, NY (14846)

9:27 PM EST on December 17, 2014 (GMT -0500)
Dalton | Change Station
CLOSE
Current Station
Personal Weather Station
Location: Dalton, NY
Elevation: 1913 ft
Nearby Weather Stations

Elev 1913 ft 42.51 °N, 77.92 °W | Updated 60 seconds ago

Overcast
Overcast
28.4 °F
Feels Like 28 °F
N
0.0
Wind Variable Wind from West
Gusts 8.0 mph

Today
High -- | Low -- °F
--% Chance of Precip.
Yesterday
High -- | Low -- °F
Precip. -- in
7:36 AM 4:40 PM
Waning Crescent, 18% visible
Pressure 30.01 in
Visibility 10.0 miles
Clouds Mostly Cloudy 2300 ft
Mostly Cloudy 4400 ft
Overcast 6500 ft
Windchill 28 °F
Dew Point 26 °F
Humidity 92%
Rainfall 0.00 in
Snow Depth Not available.
UV 0 out of 12
Pollen .10 out of 12
Air Quality Not available.
Flu Activity Not available.
METAR KDSV 180154Z AUTO 01007KT 10SM BKN023 BKN044 OVC065 01/M03 A2996 RMK AO2 SLP161 T00111033

More Conditions Fewer Conditions

Pressure 30.01 in
Visibility 10.0 miles
Clouds Mostly Cloudy 2300 ft
Mostly Cloudy 4400 ft
Overcast 6500 ft
Windchill 28 °F
Dew Point 26 °F
Humidity 92%
Rainfall 0.00 in
Snow Depth Not available.
UV 0 out of 12
Pollen .10 out of 12
Air Quality Not available.
Flu Activity Not available.
METAR KDSV 180154Z AUTO 01007KT 10SM BKN023 BKN044 OVC065 01/M03 A2996 RMK AO2 SLP161 T00111033

More Conditions Fewer Conditions

10-Day Weather Forecast

Almanac

Astronomy

Dec. 17, 2014 Rise Set
Actual Time
Civil Twilight
Nautical Twilight
Astronomical Twilight
Moon
Length of Visible Light
Length of Day
Tomorrow will be .
, % of the Moon is Illuminated

Today's Extremes

State Highs State Lows

Community

WunderPhotos

Upload Photos

1,778,859 photos uploaded!

WunderBlogs® & News

Nearby

Air Quality

  Air Quality AQ Index Pollutant
Not available.

Snow Depth

Station Depth Elevation

Earthquake Activity

City Distance Mag. Time & Date
Minimum magnitude displayed is 2.5.

Coastal Water Temperatures

Place Temperature

Nearby Weather Stations